SABESAAR

Guest
Details From SABE - Aeroparque Jorge Newbery
To SAAR - Rosario (islas Malvinas)
Flight Number -
Tags Generated
Created
Modified
Stats Distance 154 nm / 284 km
Max Altitude 0 ft / 0 m
Waypoints 2
Social Downloads 9
Likes 0
Share VATSIM

Download

Looking for another format? Having issues loading an existing format? Contact us
Advertisement - Login to hide

Notes

Generated

Route

SABE SAAR

ID Type Via Altitude Latitude Longitude Leg Dist Tot Dist Heading (true) Name
O SABE APT - 0 ft / 0 m -34.55416˚ -58.42526˚ - 0 nm - -
O SAAR APT - 0 ft / 0 m -32.91677˚ -60.78765˚ 153 nm 153 nm 309° / 310° -

Altitude Profile

Advertisement - Login to hide

SABE

Details ICAO SABE (AEP)
Name Aeroparque Jorge Newbery
Region Argentina
Timezone Unknown (UTC+0.0)
Stats Elevation 17 ft / 5 m (AMSL)
Location -34.559414° -58.415749°
Runways 1
Magnetic Variation 9.054° W

METAR

SABE 251300Z 32006G66KT CAVOK 14/10 Q1024 NOSIG

Decode

TAF

TAF SABE 251100Z 2512/2612 34010KT CAVOK TX21/2518Z TN10/2610Z BECMG 2522/2600 36015KT

Decode

Departure Runways

ID Width Length Bearing (true) Bearing (mag) Surface Threshold Offset Overrun Length
13 131 ft / 40 m 6,882 ft / 2,098 m 123.87° 132.92° Concrete 0 ft / 0 m 791 ft / 241 m
31 131 ft / 40 m 6,882 ft / 2,098 m 303.86° 312.91° Concrete 991 ft / 302 m 0 ft / 0 m

SAAR

Details ICAO SAAR (ROS)
Name Rosario (Islas Malvinas)
Region Argentina
Timezone America/Argentina/Cordoba (UTC-3.0)
Stats Elevation 85 ft / 26 m (AMSL)
Location -32.903472° -60.784635°
Runways 1
Magnetic Variation 7.919° W

METAR

SAAR 251300Z 05003KT CAVOK 12/09 Q1023

Decode

TAF

TAF SAAR 251100Z 2512/2612 02005KT 5000 BR NSC TX20/2518Z TN07/2610Z BECMG 2513/2514 02010KT 9999 SCT025 TEMPO 2520/2523 36005KT CAVOK BECMG 2600/2602 02010KT BECMG 2606/2608 5000 BR NSC PROB40 2608/2611 0900 FG

Decode

Destination Runways

ID Width Length Bearing (true) Bearing (mag) Surface Threshold Offset Overrun Length
02 148 ft / 45 m 9,878 ft / 3,011 m 10.78° 18.70° Concrete 0 ft / 0 m 128 ft / 39 m
20 148 ft / 45 m 9,878 ft / 3,011 m 190.78° 198.70° Concrete 0 ft / 0 m 0 ft / 0 m

Approach Navaids

Runway Type Ident Frequency Range Bearing (true) Bearing (mag) Slope Elevation
20 Localiser RO 109.90 MHz 18 nm / 33 km 190.75° 198.67° - 87 ft / 27 m (AMSL)
20 Glidescope RO 109.90 MHz 10 nm / 19 km 190.78° 198.70° 3.00° 138 ft / 42 m (AMSL)
20 DME RO 109.90 MHz 18 nm / 33 km - - - 138 ft / 42 m (AMSL)
20 DME RO 109.90 MHz 18 nm / 33 km - - - 138 ft / 42 m (AMSL)

Popular Alternatives